Huvudsida
METAR-TAF:

METAR-TAF

Flygplatser :

Pärnu flygplats

Pärnu, Estland

latitud: 58-25-09N, longitud: 024-28-22E, höjd: 14 m

Aktuellt väderrapport

Denna rapport gjordes för 1 timme och 16 minuter sedan, klockan 12:50 UTC
Vind 14 kt från väst/sydväst i byarna ända upp till 24 kt
Temperatur 15°C
Fuktighet 82%
Tryck 1007 hPa
Sikt 10 km eller mer
Spridda moln på en höjd av 2000 ft

METAR: EEPU 191250Z 25014G24KT 9999 SCT020 15/12 Q1007

Tid: 17:06 (14:06 UTC)


TAF: saknas

Aktuella väderrapporter och prognoser från 4000 flygplatser (METAR- och TAF-rapporter).

De tillgängliga stationerna syns som gula och röda prickar på kartan.

För musen över prickarna för att se namnen på stationerna.

Klicka sedan för att få väderrapporter och prognoser.

För att ändra kartan: Klicka på de gröna knapparna med ett svart kors på för att zooma in; den gröna knappen med ett streck på för att zooma ut; eller på de gröna pilarna för angränsande kartor.


METAR-TAF: